Погода Новгородна 2 недели

Новгородская область, Россия

23 июля-05 августа
  • 23июля
    Сегодня
    +15°
    +26°
    Ясно и безоблачно
    ВремяПогодаТемператураВлажностьДавлениеВетер, м/сВероятность осадков
    00:00Практически безоблачно+18°C88 %759 мм0.8 м/с2 %
    03:00Практически безоблачно+17°C85 %760 мм1.0 м/с2 %
    06:00Ясно и безоблачно+17°C83 %760 мм1.2 м/с2 %
    09:00Ясно и безоблачно+22°C63 %760 мм2.0 м/с2 %
    12:00Практически безоблачно+24°C44 %760 мм2.4 м/с2 %
    15:00Ясно и безоблачно+25°C43 %760 мм2.5 м/с2 %
    18:00Ясно и безоблачно+26°C46 %760 мм2.2 м/с2 %
    21:00Ясно и безоблачно+22°C64 %760 мм0.8 м/с2 %
  • 24июля
    Среда
    +15°
    +26°
    Ясно и безоблачно
    ВремяПогодаТемператураВлажностьДавлениеВетер, м/сВероятность осадков
    00:00Ясно и безоблачно+17°C79 %760 мм0.4 м/с2 %
    03:00Ясно и безоблачно+16°C87 %760 мм0.9 м/с2 %
    06:00Ясно и безоблачно+17°C87 %760 мм0.8 м/с2 %
    09:00Ясно и безоблачно+22°C65 %760 мм1.6 м/с2 %
    12:00Ясно и безоблачно+24°C46 %760 мм2.0 м/с2 %
    15:00Ясно и безоблачно+25°C42 %759 мм2.3 м/с2 %
    18:00Ясно и безоблачно+26°C43 %758 мм1.8 м/с2 %
    21:00Ясно и безоблачно+22°C70 %758 мм0.5 м/с2 %
  • 25июля
    Четверг
    +16°
    +28°
    Практически безоблачно
    ВремяПогодаТемператураВлажностьДавлениеВетер, м/сВероятность осадков
    00:00Ясно и безоблачно+17°C84 %758 мм0.3 м/с2 %
    03:00Ясно и безоблачно+16°C87 %758 мм0.9 м/с2 %
    06:00Ясно и безоблачно+17°C81 %758 мм0.5 м/с2 %
    09:00Ясно и безоблачно+23°C61 %758 мм1.0 м/с2 %
    12:00Ясно и безоблачно+26°C41 %757 мм1.1 м/с2 %
    15:00Практически безоблачно+27°C40 %757 мм1.9 м/с2 %
    18:00Практически безоблачно+28°C44 %757 мм1.9 м/с11 %
    21:00Практически безоблачно+23°C69 %757 мм1.1 м/с4 %
  • 26июля
    Пятница
    +16°
    +28°
    Практически безоблачно
    ВремяПогодаТемператураВлажностьДавлениеВетер, м/сВероятность осадков
    00:00Практически безоблачно+19°C82 %757 мм0.6 м/с2 %
    03:00Ясно и безоблачно+17°C90 %757 мм0.7 м/с2 %
    06:00Ясно и безоблачно+18°C89 %758 мм0.8 м/с2 %
    09:00Ясно и безоблачно+23°C69 %758 мм1.3 м/с2 %
    12:00Практически безоблачно+26°C48 %759 мм1.4 м/с11 %
    15:00Практически безоблачно+27°C46 %759 мм1.8 м/с16 %
    18:00Небольшая облачность+27°C51 %759 мм1.8 м/с24 %
    21:00Практически безоблачно+23°C81 %760 мм0.8 м/с7 %
  • 27июля
    Суббота
    +17°
    +29°
    Практически безоблачно
    ВремяПогодаТемператураВлажностьДавлениеВетер, м/сВероятность осадков
    00:00Ясно и безоблачно+19°C93 %760 мм0.0 м/с2 %
    03:00Ясно и безоблачно+18°C99 %761 мм0.6 м/с2 %
    06:00Практически безоблачно+19°C97 %761 мм0.5 м/с4 %
    09:00Ясно и безоблачно+24°C66 %762 мм1.0 м/с6 %
    12:00Практически безоблачно+27°C43 %762 мм1.9 м/с29 %
    15:00Практически безоблачно+28°C40 %762 мм2.6 м/с28 %
    18:00Практически безоблачно+26°C43 %761 мм2.2 м/с45 %
    21:00Облачно с прояснениями+22°C76 %762 мм1.2 м/с14 %
Мы используем cookies
Соглашаюсь